Terminal Aerodrome Forecast
Issued by NWS Albany, NY

Home | Current Version | Previous Version | Text Only | Print | Product List | Glossary On
Versions: 1 2 3 4 5 6 7 8 9 10 11 12 13 14 15 16 17 18 19 20 21 22 23 24
000
FTUS41 KALY 040303 AAC
TAFALB
TAF AMD
KALB 040303Z 0403/0424 VRB10KT 3SM TSRA OVC030CB
     FM040330 19005KT P6SM BKN045
     FM040600 VRB03KT 5SM BR BKN030
     FM041100 19008KT P6SM SCT035
     FM041800 27008G18KT P6SM SCT040=

USA.gov is the U.S. government's official web portal to all federal, state and local government web resources and services.